createdAt,value
2022-10-18T00:02:09.168Z,16.90
2022-10-18T00:04:57.109Z,16.89
2022-10-18T00:07:45.147Z,16.91
2022-10-18T00:10:34.387Z,16.89
2022-10-18T00:13:22.928Z,16.83
2022-10-18T00:16:13.165Z,16.77
2022-10-18T00:19:01.085Z,16.76
2022-10-18T00:21:51.003Z,16.83
2022-10-18T00:24:38.946Z,16.39
2022-10-18T00:27:30.108Z,16.90
2022-10-18T00:30:18.230Z,16.99
2022-10-18T00:33:06.126Z,17.12
2022-10-18T00:35:54.019Z,17.30
2022-10-18T00:38:42.176Z,17.29
2022-10-18T00:41:32.377Z,17.30
2022-10-18T00:44:57.692Z,17.22
2022-10-18T00:47:51.785Z,17.23
2022-10-18T00:50:41.210Z,17.22
2022-10-18T00:53:29.132Z,17.19
2022-10-18T00:56:17.985Z,17.22
2022-10-18T00:59:05.924Z,17.29
2022-10-18T01:01:53.939Z,17.42
2022-10-18T01:04:43.354Z,17.51
2022-10-18T01:08:23.204Z,17.67
2022-10-18T01:11:35.390Z,17.94
2022-10-18T01:14:38.290Z,18.17
2022-10-18T01:17:35.128Z,18.41
2022-10-18T01:20:53.635Z,18.56
2022-10-18T01:24:05.071Z,18.33
2022-10-18T01:27:09.931Z,18.65
2022-10-18T01:30:23.365Z,18.72
2022-10-18T01:33:18.313Z,18.68
2022-10-18T01:36:15.139Z,18.71
2022-10-18T01:39:08.987Z,18.63
2022-10-18T01:41:59.381Z,18.40
2022-10-18T01:44:49.105Z,18.21
2022-10-18T01:47:39.139Z,18.16
2022-10-18T01:50:31.828Z,18.00
2022-10-18T01:53:24.802Z,17.98
2022-10-18T01:56:21.577Z,17.94
2022-10-18T01:59:31.378Z,17.93
2022-10-18T02:02:31.448Z,17.83
2022-10-18T02:05:28.932Z,17.88
2022-10-18T02:08:27.109Z,17.91
2022-10-18T02:11:16.611Z,17.90
2022-10-18T02:14:08.041Z,17.87
2022-10-18T02:16:57.993Z,17.84
2022-10-18T02:19:51.035Z,17.77
2022-10-18T02:22:42.558Z,17.80
2022-10-18T02:25:34.752Z,17.87
2022-10-18T02:31:21.705Z,18.55
2022-10-18T02:34:18.343Z,18.73
2022-10-18T02:37:06.564Z,18.91
2022-10-18T02:39:55.975Z,19.23
2022-10-18T02:42:47.880Z,19.08
2022-10-18T02:45:36.016Z,19.07
2022-10-18T02:48:23.908Z,19.04
2022-10-18T02:51:11.824Z,19.03
2022-10-18T02:53:59.718Z,19.02
2022-10-18T02:56:48.953Z,19.33
2022-10-18T02:59:36.794Z,19.64
2022-10-18T03:02:24.773Z,19.65
2022-10-18T03:05:12.692Z,19.40
2022-10-18T03:08:00.584Z,19.44
2022-10-18T03:10:48.489Z,19.52
2022-10-18T03:13:37.714Z,19.58
2022-10-18T03:16:25.617Z,19.48
2022-10-18T03:19:13.524Z,19.57
2022-10-18T03:22:01.406Z,19.59
2022-10-18T03:24:49.323Z,19.63
2022-10-18T03:27:37.211Z,19.65
2022-10-18T03:30:26.689Z,19.63
2022-10-18T03:33:14.609Z,19.63
2022-10-18T03:36:02.502Z,19.75
2022-10-18T03:38:50.440Z,19.63
2022-10-18T03:41:38.304Z,19.50
2022-10-18T03:44:26.210Z,19.21
2022-10-18T03:47:15.618Z,18.64
2022-10-18T03:50:03.705Z,18.49
2022-10-18T03:52:51.686Z,18.19
2022-10-18T03:55:39.986Z,17.98
2022-10-18T03:58:27.962Z,17.72
2022-10-18T04:01:15.997Z,17.56
2022-10-18T04:04:05.551Z,17.61
2022-10-18T04:06:53.478Z,17.50
2022-10-18T04:09:41.402Z,17.48
2022-10-18T04:12:29.584Z,17.33
2022-10-18T04:15:17.895Z,17.44
2022-10-18T04:18:05.863Z,17.42
2022-10-18T04:20:55.100Z,17.46
2022-10-18T04:23:43.073Z,17.45
2022-10-18T04:26:30.954Z,17.38
2022-10-18T04:29:18.977Z,17.42
2022-10-18T04:32:07.149Z,16.76
2022-10-18T04:34:55.001Z,17.37
2022-10-18T04:37:44.243Z,17.35
2022-10-18T04:40:32.273Z,17.37
2022-10-18T04:43:20.225Z,17.37
2022-10-18T04:46:08.156Z,17.35
2022-10-18T04:48:56.071Z,17.27
2022-10-18T04:51:44.025Z,17.32
2022-10-18T04:54:33.294Z,17.28
2022-10-18T04:57:21.194Z,17.22
2022-10-18T05:00:09.596Z,17.16
2022-10-18T05:02:57.846Z,17.19
2022-10-18T05:06:03.092Z,17.20
2022-10-18T05:08:51.524Z,17.20
2022-10-18T05:11:40.796Z,17.19
2022-10-18T05:14:28.767Z,17.15
2022-10-18T05:17:16.665Z,17.07
2022-10-18T05:20:05.269Z,17.04
2022-10-18T05:22:53.188Z,17.09
2022-10-18T05:25:41.329Z,17.13
2022-10-18T05:28:46.223Z,17.06
2022-10-18T05:31:34.175Z,17.09
2022-10-18T05:34:22.267Z,17.01
2022-10-18T05:37:10.262Z,16.99
2022-10-18T05:39:58.156Z,16.96
2022-10-18T05:42:46.048Z,16.95
2022-10-18T05:45:35.249Z,17.00
2022-10-18T05:48:23.221Z,16.87
2022-10-18T05:51:11.106Z,16.85
2022-10-18T05:53:59.140Z,16.87
2022-10-18T05:56:46.998Z,16.85
2022-10-18T05:59:34.942Z,16.77
2022-10-18T06:02:24.234Z,16.61
2022-10-18T06:04:51.915Z,16.65
2022-10-18T06:07:19.533Z,16.66
2022-10-18T06:09:47.130Z,16.70
2022-10-18T06:12:14.684Z,16.64
2022-10-18T06:14:44.428Z,16.63
2022-10-18T06:17:12.174Z,16.61
2022-10-18T06:19:43.325Z,16.64
2022-10-18T06:22:11.075Z,16.55
2022-10-18T06:24:38.695Z,16.55
2022-10-18T06:27:08.964Z,16.77
2022-10-18T06:29:36.721Z,16.62
2022-10-18T06:32:04.875Z,16.97
2022-10-18T06:34:32.819Z,16.97
2022-10-18T06:37:01.827Z,17.03
2022-10-18T06:39:30.207Z,17.03
2022-10-18T06:41:57.905Z,17.06
2022-10-18T06:44:25.777Z,17.10
2022-10-18T06:46:53.786Z,17.14
2022-10-18T06:49:21.367Z,17.19
2022-10-18T06:51:48.990Z,17.16
2022-10-18T06:54:18.914Z,17.19
2022-10-18T06:56:46.832Z,17.13
2022-10-18T06:59:14.928Z,17.13
2022-10-18T07:01:43.471Z,17.03
2022-10-18T07:04:11.237Z,16.99
2022-10-18T07:06:38.924Z,17.07
2022-10-18T07:09:06.580Z,17.16
2022-10-18T07:11:35.938Z,17.25
2022-10-18T07:14:04.884Z,17.30
2022-10-18T07:16:33.509Z,17.29
2022-10-18T07:19:01.150Z,17.35
2022-10-18T07:21:29.064Z,17.45
2022-10-18T07:23:57.467Z,17.28
2022-10-18T07:26:27.134Z,16.92
2022-10-18T07:28:59.074Z,16.81
2022-10-18T07:31:27.592Z,16.80
2022-10-18T07:33:55.534Z,16.78
2022-10-18T07:36:24.423Z,16.66
2022-10-18T07:38:53.090Z,16.69
2022-10-18T07:41:21.278Z,16.78
2022-10-18T07:43:50.740Z,16.75
2022-10-18T07:46:21.063Z,16.81
2022-10-18T07:48:49.548Z,16.86
2022-10-18T07:51:17.933Z,16.84
2022-10-18T07:53:45.903Z,16.88
2022-10-18T07:56:16.762Z,16.85
2022-10-18T07:58:45.171Z,16.84
2022-10-18T08:01:13.874Z,17.02
2022-10-18T08:03:43.281Z,16.98
2022-10-18T08:06:12.685Z,17.09
2022-10-18T08:08:41.749Z,17.09
2022-10-18T08:11:12.259Z,17.12
2022-10-18T08:13:40.133Z,16.56
2022-10-18T08:16:09.710Z,17.06
2022-10-18T08:18:37.902Z,17.04
2022-10-18T08:21:09.458Z,16.83
2022-10-18T08:23:37.330Z,16.88
2022-10-18T08:26:06.894Z,16.84
2022-10-18T08:28:36.669Z,16.90
2022-10-18T08:31:05.267Z,16.77
2022-10-18T08:33:33.894Z,16.87
2022-10-18T08:36:05.651Z,16.84
2022-10-18T08:38:36.561Z,16.92
2022-10-18T08:41:22.459Z,17.06
2022-10-18T08:43:57.275Z,17.15
2022-10-18T08:46:26.128Z,17.37
2022-10-18T08:48:57.476Z,17.58
2022-10-18T08:51:31.130Z,17.82
2022-10-18T08:54:05.870Z,17.93
2022-10-18T08:56:34.745Z,18.02
2022-10-18T08:59:03.179Z,18.13
2022-10-18T09:01:42.998Z,18.06
2022-10-18T09:04:27.001Z,18.03
2022-10-18T09:07:06.836Z,18.11
2022-10-18T09:09:44.558Z,18.02
2022-10-18T09:12:42.683Z,17.86
2022-10-18T09:15:17.460Z,17.70
2022-10-18T09:18:08.342Z,17.56
2022-10-18T09:20:43.496Z,17.53
2022-10-18T09:23:19.544Z,17.62
2022-10-18T09:25:50.557Z,17.83
2022-10-18T09:28:33.269Z,18.04
2022-10-18T09:31:08.189Z,18.17
2022-10-18T09:33:44.775Z,18.48
2022-10-18T09:36:18.359Z,18.46
2022-10-18T09:38:49.299Z,18.65
2022-10-18T09:41:23.901Z,18.69
2022-10-18T09:43:56.538Z,18.79
2022-10-18T09:46:27.733Z,18.96
2022-10-18T09:49:00.172Z,19.27
2022-10-18T09:51:34.573Z,19.39
2022-10-18T09:54:16.862Z,19.38
2022-10-18T09:56:50.834Z,19.31
2022-10-18T09:59:38.419Z,19.30
2022-10-18T10:02:07.394Z,19.30
2022-10-18T10:04:35.049Z,19.12
2022-10-18T10:07:03.413Z,19.02
2022-10-18T10:09:32.610Z,19.25
2022-10-18T10:12:02.486Z,19.47
2022-10-18T10:14:31.067Z,19.33
2022-10-18T10:17:02.150Z,19.36
2022-10-18T10:19:32.689Z,19.38
2022-10-18T10:22:03.694Z,19.38
2022-10-18T10:24:40.634Z,19.33
2022-10-18T10:27:19.133Z,19.18
2022-10-18T10:29:55.853Z,19.16
2022-10-18T10:34:59.145Z,19.12
2022-10-18T10:37:38.533Z,19.12
2022-10-18T10:40:18.775Z,19.08
2022-10-18T10:43:13.021Z,19.03
2022-10-18T10:46:13.158Z,18.99
2022-10-18T10:48:47.595Z,19.02
2022-10-18T10:51:18.105Z,19.12
2022-10-18T10:53:52.020Z,19.11
2022-10-18T10:56:24.958Z,19.09
2022-10-18T10:58:55.723Z,19.07
2022-10-18T11:01:32.388Z,19.00
2022-10-18T11:04:02.722Z,19.06
2022-10-18T11:06:45.558Z,18.96
2022-10-18T11:09:25.418Z,18.93
2022-10-18T11:12:02.461Z,18.84
2022-10-18T11:14:37.628Z,18.78
2022-10-18T11:17:13.727Z,18.87
2022-10-18T11:19:50.846Z,18.85
2022-10-18T11:22:22.998Z,19.09
2022-10-18T11:24:50.649Z,19.17
2022-10-18T11:27:26.137Z,19.16
2022-10-18T11:30:13.595Z,19.22
2022-10-18T11:32:49.621Z,19.17
2022-10-18T11:35:31.403Z,19.06
2022-10-18T11:38:08.430Z,19.00
2022-10-18T11:40:50.523Z,18.85
2022-10-18T11:43:30.126Z,18.77
2022-10-18T11:46:12.584Z,18.69
2022-10-18T11:49:02.304Z,18.63
2022-10-18T11:52:03.225Z,18.48
2022-10-18T11:54:44.462Z,18.34
2022-10-18T11:57:31.199Z,18.41
2022-10-18T12:00:09.610Z,18.36
2022-10-18T12:03:04.784Z,18.34
2022-10-18T12:05:36.179Z,18.44
2022-10-18T12:08:08.435Z,18.44
2022-10-18T12:10:52.521Z,18.56
2022-10-18T12:13:34.905Z,18.48
2022-10-18T12:16:04.881Z,18.09
2022-10-18T12:18:36.269Z,18.59
2022-10-18T12:21:07.046Z,18.55
2022-10-18T12:23:40.021Z,18.52
2022-10-18T12:26:10.839Z,18.45
2022-10-18T12:28:50.180Z,18.42
2022-10-18T12:31:24.197Z,18.44
2022-10-18T12:33:58.044Z,18.22
2022-10-18T12:36:42.464Z,18.35
2022-10-18T12:39:33.325Z,18.36
2022-10-18T12:42:19.784Z,18.36
2022-10-18T12:44:48.425Z,17.92
2022-10-18T12:47:23.780Z,18.48
2022-10-18T12:49:59.980Z,18.39
2022-10-18T12:52:29.739Z,18.57
2022-10-18T12:55:28.250Z,18.65
2022-10-18T12:58:21.683Z,18.43
2022-10-18T13:00:54.350Z,18.96
2022-10-18T13:03:52.240Z,19.12
2022-10-18T13:06:22.225Z,19.12
2022-10-18T13:09:09.848Z,19.07
2022-10-18T13:11:37.608Z,18.94
2022-10-18T13:14:26.835Z,18.85
2022-10-18T13:17:04.171Z,18.83
2022-10-18T13:19:40.149Z,18.75
2022-10-18T13:22:23.789Z,18.18
2022-10-18T13:25:04.185Z,18.72
2022-10-18T13:27:45.562Z,18.74
2022-10-18T13:30:39.166Z,18.81
2022-10-18T13:33:24.976Z,18.88
2022-10-18T13:35:56.061Z,18.96
2022-10-18T13:38:39.965Z,19.05
2022-10-18T13:41:10.103Z,18.98
2022-10-18T13:43:57.855Z,19.06
2022-10-18T13:46:46.406Z,19.17
2022-10-18T13:49:28.793Z,19.25
2022-10-18T13:52:06.129Z,19.27
2022-10-18T13:54:54.942Z,19.22
2022-10-18T13:57:43.988Z,19.15
2022-10-18T14:00:31.946Z,19.19
2022-10-18T14:03:44.034Z,19.06
2022-10-18T14:06:10.196Z,19.00
2022-10-18T14:08:42.743Z,19.05
2022-10-18T14:11:24.791Z,19.06
2022-10-18T14:13:58.428Z,19.07
2022-10-18T14:16:36.168Z,19.14
2022-10-18T14:19:14.712Z,19.19
2022-10-18T14:21:51.676Z,19.29
2022-10-18T14:24:23.334Z,19.32
2022-10-18T14:27:19.501Z,19.31
2022-10-18T14:29:47.932Z,19.37
2022-10-18T14:32:25.908Z,19.39
2022-10-18T14:34:58.206Z,19.39
2022-10-18T14:37:37.864Z,19.41
2022-10-18T14:40:06.425Z,19.42
2022-10-18T14:42:35.423Z,19.38
2022-10-18T14:45:03.210Z,19.38
2022-10-18T14:47:33.694Z,19.43
2022-10-18T14:50:01.570Z,19.46
2022-10-18T14:52:35.422Z,19.15
2022-10-18T14:55:24.588Z,19.27
2022-10-18T14:57:53.742Z,19.28
2022-10-18T15:02:51.215Z,19.24
2022-10-18T15:05:21.299Z,19.19
2022-10-18T15:07:49.796Z,19.17
2022-10-18T15:10:19.941Z,19.09
2022-10-18T15:13:08.813Z,19.08
2022-10-18T15:15:38.460Z,18.62
2022-10-18T15:18:07.212Z,19.08
2022-10-18T15:20:39.425Z,19.04
2022-10-18T15:23:23.955Z,19.03
2022-10-18T15:25:53.472Z,18.93
2022-10-18T15:28:30.282Z,18.85
2022-10-18T15:31:01.796Z,18.84
2022-10-18T15:48:30.840Z,18.77
2022-10-18T15:51:01.830Z,18.73
2022-10-18T15:53:42.904Z,18.69
2022-10-18T15:56:26.640Z,18.65
2022-10-18T15:58:56.761Z,18.56
2022-10-18T16:01:30.079Z,18.49
2022-10-18T16:03:59.811Z,18.45
2022-10-18T16:06:27.520Z,18.42
2022-10-18T16:08:55.553Z,18.39
2022-10-18T16:11:24.715Z,18.35
2022-10-18T16:13:56.428Z,18.33
2022-10-18T16:16:29.070Z,18.28
2022-10-18T16:18:57.461Z,18.19
2022-10-18T16:21:29.011Z,18.16
2022-10-18T16:23:57.010Z,18.13
2022-10-18T16:26:25.835Z,18.14
2022-10-18T16:28:54.593Z,18.14
2022-10-18T16:31:23.950Z,17.61
2022-10-18T16:33:55.326Z,17.96
2022-10-18T16:36:25.130Z,18.02
2022-10-18T16:38:54.914Z,18.01
2022-10-18T16:41:23.024Z,17.97
2022-10-18T16:43:51.612Z,17.92
2022-10-18T16:46:21.326Z,17.81
2022-10-18T16:48:50.781Z,17.82
2022-10-18T16:51:18.706Z,17.72
2022-10-18T16:53:46.730Z,17.64
2022-10-18T16:56:18.765Z,17.63
2022-10-18T16:58:46.893Z,17.64
2022-10-18T17:01:16.418Z,17.60
2022-10-18T17:03:44.547Z,17.57
2022-10-18T17:06:16.647Z,17.54
2022-10-18T17:08:44.280Z,17.55
2022-10-18T17:11:13.230Z,17.55
2022-10-18T17:13:42.618Z,17.51
2022-10-18T17:16:22.295Z,17.45
2022-10-18T17:18:50.099Z,17.46
2022-10-18T17:21:17.653Z,17.43
2022-10-18T17:23:45.232Z,17.45
2022-10-18T17:26:28.447Z,17.43
2022-10-18T17:29:01.281Z,17.35
2022-10-18T17:31:29.321Z,17.27
2022-10-18T17:33:58.477Z,17.21
2022-10-18T17:36:26.571Z,17.15
2022-10-18T17:38:55.416Z,17.11
2022-10-18T17:41:23.281Z,17.05
2022-10-18T17:43:51.066Z,16.98
2022-10-18T17:46:20.177Z,16.88
2022-10-18T17:48:48.043Z,16.72
2022-10-18T17:51:17.649Z,16.62
2022-10-18T17:53:45.868Z,16.49
2022-10-18T17:56:14.888Z,16.39
2022-10-18T17:58:43.595Z,16.37
2022-10-18T18:01:13.051Z,16.32
2022-10-18T18:03:42.546Z,16.24
2022-10-18T18:06:16.096Z,16.22
2022-10-18T18:08:44.050Z,16.28
2022-10-18T18:11:11.880Z,16.33
2022-10-18T18:13:39.480Z,16.30
2022-10-18T18:16:12.375Z,16.27
2022-10-18T18:18:42.228Z,16.22
2022-10-18T18:21:09.904Z,16.16
2022-10-18T18:23:37.555Z,16.12
2022-10-18T18:26:05.681Z,16.14
2022-10-18T18:28:33.426Z,16.12
2022-10-18T18:31:01.123Z,16.13
2022-10-18T18:33:28.768Z,16.08
2022-10-18T18:35:58.985Z,16.14
2022-10-18T18:38:27.079Z,16.18
2022-10-18T18:41:04.440Z,16.21
2022-10-18T18:43:32.218Z,16.22
2022-10-18T18:45:59.964Z,16.22
2022-10-18T18:48:28.319Z,16.19
2022-10-18T18:50:56.226Z,16.24
2022-10-18T18:53:28.608Z,16.26
2022-10-18T18:56:02.603Z,16.18
2022-10-18T18:58:30.330Z,16.15
2022-10-18T19:00:58.150Z,16.03
2022-10-18T19:03:25.893Z,15.93
2022-10-18T19:06:03.260Z,15.86
2022-10-18T19:08:32.464Z,15.92
2022-10-18T19:11:00.070Z,15.90
2022-10-18T19:13:28.124Z,15.83
2022-10-18T19:16:11.522Z,15.71
2022-10-18T19:18:39.172Z,15.65
2022-10-18T19:21:07.064Z,15.59
2022-10-18T19:23:36.036Z,15.52
2022-10-18T19:26:11.199Z,15.13
2022-10-18T19:28:39.271Z,15.36
2022-10-18T19:31:07.530Z,15.30
2022-10-18T19:33:47.937Z,15.25
2022-10-18T19:36:16.424Z,15.19
2022-10-18T19:38:45.489Z,15.17
2022-10-18T19:41:13.499Z,15.08
2022-10-18T19:43:41.386Z,15.02
2022-10-18T19:46:08.961Z,14.96
2022-10-18T19:48:36.562Z,14.89
2022-10-18T19:51:07.118Z,14.93
2022-10-18T19:53:37.028Z,14.97
2022-10-18T19:56:08.158Z,14.96
2022-10-18T19:58:35.800Z,15.10
2022-10-18T20:01:03.958Z,15.26
2022-10-18T20:03:52.370Z,15.41
2022-10-18T20:06:40.704Z,15.59
2022-10-18T20:09:28.596Z,15.59
2022-10-18T20:12:17.840Z,15.71
2022-10-18T20:15:08.737Z,15.74
2022-10-18T20:17:57.460Z,15.76
2022-10-18T20:20:48.024Z,15.65
2022-10-18T20:23:37.150Z,15.80
2022-10-18T20:26:26.129Z,15.87
2022-10-18T20:29:15.476Z,15.93
2022-10-18T20:32:03.431Z,15.96
2022-10-18T20:34:51.616Z,15.98
2022-10-18T20:37:39.559Z,16.00
2022-10-18T20:40:27.478Z,15.90
2022-10-18T20:43:15.362Z,15.89
2022-10-18T20:46:05.316Z,15.87
2022-10-18T20:48:54.534Z,15.88
2022-10-18T20:51:42.790Z,15.84
2022-10-18T20:54:30.734Z,15.78
2022-10-18T20:57:18.780Z,15.79
2022-10-18T21:00:09.972Z,15.73
2022-10-18T21:03:00.053Z,15.63
2022-10-18T21:05:47.992Z,15.62
2022-10-18T21:08:35.892Z,15.48
2022-10-18T21:11:24.330Z,15.33
2022-10-18T21:14:13.633Z,15.21
2022-10-18T21:17:01.530Z,15.17
2022-10-18T21:19:50.782Z,15.06
2022-10-18T21:22:38.633Z,15.01
2022-10-18T21:25:26.536Z,15.02
2022-10-18T21:28:14.705Z,14.93
2022-10-18T21:31:10.689Z,14.81
2022-10-18T21:34:01.502Z,14.87
2022-10-18T21:36:50.751Z,14.79
2022-10-18T21:39:38.642Z,14.75
2022-10-18T21:42:26.952Z,14.71
2022-10-18T21:45:14.964Z,14.66
2022-10-18T21:48:03.866Z,14.38
2022-10-18T21:50:51.812Z,14.48
2022-10-18T21:53:43.903Z,14.43
2022-10-18T21:56:34.267Z,14.44
2022-10-18T21:59:22.714Z,14.40
2022-10-18T22:02:10.565Z,14.30
2022-10-18T22:04:58.514Z,14.23
2022-10-18T22:07:46.351Z,14.20
2022-10-18T22:10:35.584Z,14.15
2022-10-18T22:13:24.399Z,13.97
2022-10-18T22:16:15.163Z,13.99
2022-10-18T22:19:05.253Z,13.93
2022-10-18T22:21:53.338Z,13.80
2022-10-18T22:24:41.169Z,13.81
2022-10-18T22:27:31.997Z,13.81
2022-10-18T22:30:20.116Z,13.81
2022-10-18T22:33:08.013Z,13.79
2022-10-18T22:35:55.965Z,13.82
2022-10-18T22:38:43.898Z,13.82
2022-10-18T22:41:32.561Z,13.82
2022-10-18T22:44:21.785Z,13.76
2022-10-18T22:47:09.652Z,13.68
2022-10-18T22:49:57.552Z,13.66
2022-10-18T22:52:45.428Z,13.65
2022-10-18T22:55:33.268Z,13.63
2022-10-18T22:58:21.924Z,13.61
2022-10-18T23:01:13.107Z,13.62
2022-10-18T23:04:01.583Z,13.64
2022-10-18T23:06:49.412Z,13.67
2022-10-18T23:09:37.316Z,13.72
2022-10-18T23:12:25.468Z,13.76
2022-10-18T23:15:13.360Z,13.78
2022-10-18T23:18:03.032Z,13.81
2022-10-18T23:20:50.894Z,13.74
2022-10-18T23:23:41.093Z,13.77
2022-10-18T23:26:29.288Z,13.76
2022-10-18T23:29:17.644Z,13.62
2022-10-18T23:32:06.209Z,13.64
2022-10-18T23:34:55.462Z,13.69
2022-10-18T23:37:43.347Z,13.59
2022-10-18T23:40:31.235Z,13.48
2022-10-18T23:43:19.155Z,13.49
2022-10-18T23:46:07.371Z,13.14
2022-10-18T23:48:55.408Z,13.40
2022-10-18T23:51:44.601Z,13.35
2022-10-18T23:54:32.540Z,13.34
2022-10-18T23:57:20.471Z,13.34
